Athens, West Virginia
Current Conditions -  °F | °C
As of 11:52 PM on Tuesday 25 Nov 2014 (Local Time) from KBLF Reporting Station
Scattered Clouds Scattered Clouds  
Wind Chill:   Ceiling: Unl
Heat Index:   Visibility: 10mi
Dew Point: -5°   Wind: 5mph
Humidity: 47%   Direction: 40°NE
Pressure: 30.05"   Gusts: NA
Location:  37.42°N, 81.02°W
Report Text: KBLF 260452Z AUTO 04004KT 10SM SCT120 06/M05 A3005 RMK AO2 SLP177 T00561050 401170033
Loading
Personal Weather Stations






























Interactive Weather Map New forecast layout! Learn more

10-Day Weather Forecast

Advertisements
Track Severe Weather on mobile